sensor_id;sensor_type;location;lat;lon;timestamp;P1;durP1;ratioP1;P2;durP2;ratioP2
7173;SDS011;3628;48.654;8.932;2022-08-01T00:00:06;1.25;;;1.15;;
7173;SDS011;3628;48.654;8.932;2022-08-01T00:02:32;1.58;;;1.45;;
7173;SDS011;3628;48.654;8.932;2022-08-01T00:04:58;2.60;;;1.30;;
7173;SDS011;3628;48.654;8.932;2022-08-01T00:07:25;2.15;;;1.10;;
7173;SDS011;3628;48.654;8.932;2022-08-01T00:09:51;1.10;;;1.00;;
7173;SDS011;3628;48.654;8.932;2022-08-01T00:12:16;1.23;;;1.20;;
7173;SDS011;3628;48.654;8.932;2022-08-01T00:14:42;1.38;;;1.27;;
7173;SDS011;3628;48.654;8.932;2022-08-01T00:17:08;1.77;;;1.33;;
7173;SDS011;3628;48.654;8.932;2022-08-01T00:19:33;1.92;;;1.30;;
7173;SDS011;3628;48.654;8.932;2022-08-01T00:21:59;3.63;;;1.10;;
7173;SDS011;3628;48.654;8.932;2022-08-01T00:24:25;1.80;;;1.20;;
7173;SDS011;3628;48.654;8.932;2022-08-01T00:26:50;4.07;;;1.45;;
7173;SDS011;3628;48.654;8.932;2022-08-01T00:29:16;2.35;;;1.10;;
7173;SDS011;3628;48.654;8.932;2022-08-01T00:31:41;2.40;;;1.30;;
7173;SDS011;3628;48.654;8.932;2022-08-01T00:34:07;1.20;;;1.10;;
7173;SDS011;3628;48.654;8.932;2022-08-01T00:36:33;7.63;;;1.23;;
7173;SDS011;3628;48.654;8.932;2022-08-01T00:38:59;1.20;;;1.10;;
7173;SDS011;3628;48.654;8.932;2022-08-01T00:41:24;2.72;;;1.30;;
7173;SDS011;3628;48.654;8.932;2022-08-01T00:43:50;2.70;;;1.27;;
7173;SDS011;3628;48.654;8.932;2022-08-01T00:46:16;1.87;;;1.30;;
7173;SDS011;3628;48.654;8.932;2022-08-01T00:48:41;2.70;;;1.30;;
7173;SDS011;3628;48.654;8.932;2022-08-01T00:51:07;1.57;;;1.30;;
7173;SDS011;3628;48.654;8.932;2022-08-01T00:53:33;2.33;;;1.50;;
7173;SDS011;3628;48.654;8.932;2022-08-01T00:55:59;1.30;;;1.20;;
7173;SDS011;3628;48.654;8.932;2022-08-01T00:58:25;1.47;;;1.30;;
7173;SDS011;3628;48.654;8.932;2022-08-01T01:00:53;2.53;;;1.20;;
7173;SDS011;3628;48.654;8.932;2022-08-01T01:03:19;1.60;;;1.50;;
7173;SDS011;3628;48.654;8.932;2022-08-01T01:05:54;3.10;;;1.30;;
7173;SDS011;3628;48.654;8.932;2022-08-01T01:08:43;1.40;;;1.30;;
7173;SDS011;3628;48.654;8.932;2022-08-01T01:11:41;2.30;;;1.40;;
7173;SDS011;3628;48.654;8.932;2022-08-01T01:14:10;1.47;;;1.37;;
7173;SDS011;3628;48.654;8.932;2022-08-01T01:17:05;1.40;;;1.30;;
7173;SDS011;3628;48.654;8.932;2022-08-01T01:19:33;4.77;;;1.57;;
7173;SDS011;3628;48.654;8.932;2022-08-01T01:25:38;2.13;;;1.60;;
7173;SDS011;3628;48.654;8.932;2022-08-01T01:28:08;2.10;;;1.40;;
7173;SDS011;3628;48.654;8.932;2022-08-01T01:30:48;1.50;;;1.40;;
7173;SDS011;3628;48.654;8.932;2022-08-01T01:33:17;1.50;;;1.40;;
7173;SDS011;3628;48.654;8.932;2022-08-01T01:35:46;1.40;;;1.30;;
7173;SDS011;3628;48.654;8.932;2022-08-01T01:40:45;1.50;;;1.40;;
7173;SDS011;3628;48.654;8.932;2022-08-01T01:43:12;3.03;;;1.70;;
7173;SDS011;3628;48.654;8.932;2022-08-01T01:45:40;1.50;;;1.40;;
7173;SDS011;3628;48.654;8.932;2022-08-01T01:48:09;1.97;;;1.40;;
7173;SDS011;3628;48.654;8.932;2022-08-01T01:50:37;2.90;;;1.40;;
7173;SDS011;3628;48.654;8.932;2022-08-01T01:53:04;1.40;;;1.30;;
7173;SDS011;3628;48.654;8.932;2022-08-01T01:55:31;1.60;;;1.50;;
7173;SDS011;3628;48.654;8.932;2022-08-01T01:57:59;2.73;;;1.53;;
7173;SDS011;3628;48.654;8.932;2022-08-01T02:00:25;2.20;;;1.43;;
7173;SDS011;3628;48.654;8.932;2022-08-01T02:02:52;1.43;;;1.33;;
7173;SDS011;3628;48.654;8.932;2022-08-01T02:05:21;2.03;;;1.50;;
7173;SDS011;3628;48.654;8.932;2022-08-01T02:07:49;2.50;;;1.70;;
7173;SDS011;3628;48.654;8.932;2022-08-01T02:10:17;1.53;;;1.43;;
7173;SDS011;3628;48.654;8.932;2022-08-01T02:12:44;2.20;;;1.43;;
7173;SDS011;3628;48.654;8.932;2022-08-01T02:15:12;1.90;;;1.57;;
7173;SDS011;3628;48.654;8.932;2022-08-01T02:17:41;1.70;;;1.50;;
7173;SDS011;3628;48.654;8.932;2022-08-01T02:20:12;1.60;;;1.50;;
7173;SDS011;3628;48.654;8.932;2022-08-01T02:22:52;2.20;;;1.57;;
7173;SDS011;3628;48.654;8.932;2022-08-01T02:25:22;1.50;;;1.40;;
7173;SDS011;3628;48.654;8.932;2022-08-01T02:28:04;1.63;;;1.40;;
7173;SDS011;3628;48.654;8.932;2022-08-01T02:30:54;2.60;;;1.60;;
7173;SDS011;3628;48.654;8.932;2022-08-01T02:33:27;1.70;;;1.60;;
7173;SDS011;3628;48.654;8.932;2022-08-01T02:36:02;3.33;;;1.50;;
7173;SDS011;3628;48.654;8.932;2022-08-01T02:38:31;2.03;;;1.60;;
7173;SDS011;3628;48.654;8.932;2022-08-01T02:41:02;3.90;;;1.80;;
7173;SDS011;3628;48.654;8.932;2022-08-01T02:43:38;2.57;;;1.53;;
7173;SDS011;3628;48.654;8.932;2022-08-01T02:46:09;1.90;;;1.70;;
7173;SDS011;3628;48.654;8.932;2022-08-01T02:48:41;3.10;;;1.50;;
7173;SDS011;3628;48.654;8.932;2022-08-01T02:51:07;2.00;;;1.70;;
7173;SDS011;3628;48.654;8.932;2022-08-01T02:53:36;2.17;;;1.60;;
7173;SDS011;3628;48.654;8.932;2022-08-01T02:56:05;1.87;;;1.73;;
7173;SDS011;3628;48.654;8.932;2022-08-01T02:58:35;2.20;;;1.57;;
7173;SDS011;3628;48.654;8.932;2022-08-01T03:01:03;2.10;;;1.90;;
7173;SDS011;3628;48.654;8.932;2022-08-01T03:03:30;1.57;;;1.47;;
7173;SDS011;3628;48.654;8.932;2022-08-01T03:05:58;1.50;;;1.40;;
7173;SDS011;3628;48.654;8.932;2022-08-01T03:08:25;1.90;;;1.70;;
7173;SDS011;3628;48.654;8.932;2022-08-01T03:10:51;2.00;;;1.80;;
7173;SDS011;3628;48.654;8.932;2022-08-01T03:13:19;3.13;;;1.83;;
7173;SDS011;3628;48.654;8.932;2022-08-01T03:15:46;3.23;;;1.60;;
7173;SDS011;3628;48.654;8.932;2022-08-01T03:18:14;1.60;;;1.50;;
7173;SDS011;3628;48.654;8.932;2022-08-01T03:20:41;1.80;;;1.60;;
7173;SDS011;3628;48.654;8.932;2022-08-01T03:23:08;3.33;;;1.70;;
7173;SDS011;3628;48.654;8.932;2022-08-01T03:25:38;1.70;;;1.60;;
7173;SDS011;3628;48.654;8.932;2022-08-01T03:28:06;4.23;;;1.60;;
7173;SDS011;3628;48.654;8.932;2022-08-01T03:30:33;2.27;;;1.93;;
7173;SDS011;3628;48.654;8.932;2022-08-01T03:33:02;2.30;;;1.80;;
7173;SDS011;3628;48.654;8.932;2022-08-01T03:35:33;2.03;;;1.60;;
7173;SDS011;3628;48.654;8.932;2022-08-01T03:38:02;2.60;;;1.80;;
7173;SDS011;3628;48.654;8.932;2022-08-01T03:40:43;3.90;;;2.00;;
7173;SDS011;3628;48.654;8.932;2022-08-01T03:43:26;5.93;;;1.90;;
7173;SDS011;3628;48.654;8.932;2022-08-01T03:46:07;3.00;;;1.73;;
7173;SDS011;3628;48.654;8.932;2022-08-01T03:48:42;2.17;;;1.90;;
7173;SDS011;3628;48.654;8.932;2022-08-01T03:51:12;2.50;;;1.60;;
7173;SDS011;3628;48.654;8.932;2022-08-01T03:53:38;2.47;;;1.83;;
7173;SDS011;3628;48.654;8.932;2022-08-01T03:56:06;3.83;;;1.90;;
7173;SDS011;3628;48.654;8.932;2022-08-01T03:58:33;4.17;;;1.93;;
7173;SDS011;3628;48.654;8.932;2022-08-01T04:01:00;4.40;;;2.07;;
7173;SDS011;3628;48.654;8.932;2022-08-01T04:03:26;1.93;;;1.83;;
7173;SDS011;3628;48.654;8.932;2022-08-01T04:05:52;4.17;;;2.23;;
7173;SDS011;3628;48.654;8.932;2022-08-01T04:08:17;2.83;;;1.77;;
7173;SDS011;3628;48.654;8.932;2022-08-01T04:10:43;3.00;;;2.00;;
7173;SDS011;3628;48.654;8.932;2022-08-01T04:13:09;2.03;;;1.90;;
7173;SDS011;3628;48.654;8.932;2022-08-01T04:15:34;2.57;;;2.03;;
7173;SDS011;3628;48.654;8.932;2022-08-01T04:18:00;2.10;;;1.90;;
7173;SDS011;3628;48.654;8.932;2022-08-01T04:20:25;2.80;;;2.00;;
7173;SDS011;3628;48.654;8.932;2022-08-01T04:22:51;5.47;;;2.20;;
7173;SDS011;3628;48.654;8.932;2022-08-01T04:25:28;4.00;;;2.47;;
7173;SDS011;3628;48.654;8.932;2022-08-01T04:27:59;5.90;;;2.40;;
7173;SDS011;3628;48.654;8.932;2022-08-01T04:30:29;2.63;;;2.10;;
7173;SDS011;3628;48.654;8.932;2022-08-01T04:32:57;2.07;;;1.87;;
7173;SDS011;3628;48.654;8.932;2022-08-01T04:35:25;3.57;;;2.03;;
7173;SDS011;3628;48.654;8.932;2022-08-01T04:37:52;2.10;;;1.90;;
7173;SDS011;3628;48.654;8.932;2022-08-01T04:40:19;3.83;;;2.13;;
7173;SDS011;3628;48.654;8.932;2022-08-01T04:42:48;3.57;;;2.10;;
7173;SDS011;3628;48.654;8.932;2022-08-01T04:45:15;2.27;;;2.07;;
7173;SDS011;3628;48.654;8.932;2022-08-01T04:47:41;1.80;;;1.60;;
7173;SDS011;3628;48.654;8.932;2022-08-01T04:50:08;2.53;;;2.00;;
7173;SDS011;3628;48.654;8.932;2022-08-01T04:52:35;2.77;;;2.10;;
7173;SDS011;3628;48.654;8.932;2022-08-01T04:55:02;1.87;;;1.77;;
7173;SDS011;3628;48.654;8.932;2022-08-01T04:57:29;2.20;;;2.03;;
7173;SDS011;3628;48.654;8.932;2022-08-01T04:59:55;3.73;;;2.20;;
7173;SDS011;3628;48.654;8.932;2022-08-01T05:02:22;3.13;;;2.10;;
7173;SDS011;3628;48.654;8.932;2022-08-01T05:04:48;2.93;;;1.93;;
7173;SDS011;3628;48.654;8.932;2022-08-01T05:07:14;3.20;;;2.10;;
7173;SDS011;3628;48.654;8.932;2022-08-01T05:09:41;2.60;;;2.10;;
7173;SDS011;3628;48.654;8.932;2022-08-01T05:12:07;3.13;;;1.97;;
7173;SDS011;3628;48.654;8.932;2022-08-01T05:14:34;2.80;;;2.20;;
7173;SDS011;3628;48.654;8.932;2022-08-01T05:17:00;2.30;;;2.13;;
7173;SDS011;3628;48.654;8.932;2022-08-01T05:19:32;3.83;;;2.33;;
7173;SDS011;3628;48.654;8.932;2022-08-01T05:21:58;3.10;;;2.50;;
7173;SDS011;3628;48.654;8.932;2022-08-01T05:24:26;4.47;;;2.33;;
7173;SDS011;3628;48.654;8.932;2022-08-01T05:26:53;3.75;;;2.60;;
7173;SDS011;3628;48.654;8.932;2022-08-01T05:29:19;3.22;;;2.25;;
7173;SDS011;3628;48.654;8.932;2022-08-01T05:31:45;3.30;;;2.15;;
7173;SDS011;3628;48.654;8.932;2022-08-01T05:34:10;2.15;;;1.95;;
7173;SDS011;3628;48.654;8.932;2022-08-01T05:36:36;4.72;;;3.03;;
7173;SDS011;3628;48.654;8.932;2022-08-01T05:39:02;5.75;;;3.08;;
7173;SDS011;3628;48.654;8.932;2022-08-01T05:41:29;5.35;;;3.13;;
7173;SDS011;3628;48.654;8.932;2022-08-01T05:43:55;4.90;;;3.40;;
7173;SDS011;3628;48.654;8.932;2022-08-01T05:46:21;5.57;;;3.17;;
7173;SDS011;3628;48.654;8.932;2022-08-01T05:48:46;4.43;;;2.90;;
7173;SDS011;3628;48.654;8.932;2022-08-01T05:51:12;5.95;;;3.25;;
7173;SDS011;3628;48.654;8.932;2022-08-01T05:53:38;3.38;;;2.72;;
7173;SDS011;3628;48.654;8.932;2022-08-01T05:56:04;3.17;;;2.65;;
7173;SDS011;3628;48.654;8.932;2022-08-01T05:58:29;3.55;;;2.40;;
7173;SDS011;3628;48.654;8.932;2022-08-01T06:00:55;2.90;;;1.73;;
7173;SDS011;3628;48.654;8.932;2022-08-01T06:03:21;2.38;;;1.80;;
7173;SDS011;3628;48.654;8.932;2022-08-01T06:05:46;2.22;;;1.40;;
7173;SDS011;3628;48.654;8.932;2022-08-01T06:08:12;3.22;;;1.95;;
7173;SDS011;3628;48.654;8.932;2022-08-01T06:10:38;3.25;;;2.05;;
7173;SDS011;3628;48.654;8.932;2022-08-01T06:13:03;3.28;;;2.08;;
7173;SDS011;3628;48.654;8.932;2022-08-01T06:15:30;3.17;;;1.85;;
7173;SDS011;3628;48.654;8.932;2022-08-01T06:17:56;1.50;;;1.40;;
7173;SDS011;3628;48.654;8.932;2022-08-01T06:20:22;4.15;;;1.65;;
7173;SDS011;3628;48.654;8.932;2022-08-01T06:22:47;1.15;;;1.08;;
7173;SDS011;3628;48.654;8.932;2022-08-01T06:25:13;3.28;;;1.30;;
7173;SDS011;3628;48.654;8.932;2022-08-01T06:27:38;4.70;;;1.60;;
7173;SDS011;3628;48.654;8.932;2022-08-01T06:30:04;1.88;;;1.30;;
7173;SDS011;3628;48.654;8.932;2022-08-01T06:32:32;1.90;;;1.60;;
7173;SDS011;3628;48.654;8.932;2022-08-01T06:34:58;1.50;;;1.40;;
7173;SDS011;3628;48.654;8.932;2022-08-01T06:37:23;1.98;;;1.20;;
7173;SDS011;3628;48.654;8.932;2022-08-01T06:39:53;2.33;;;1.63;;
7173;SDS011;3628;48.654;8.932;2022-08-01T06:42:18;2.85;;;1.38;;
7173;SDS011;3628;48.654;8.932;2022-08-01T06:44:44;2.13;;;1.60;;
7173;SDS011;3628;48.654;8.932;2022-08-01T06:47:10;4.65;;;1.33;;
7173;SDS011;3628;48.654;8.932;2022-08-01T06:49:36;1.58;;;1.20;;
7173;SDS011;3628;48.654;8.932;2022-08-01T06:52:01;1.27;;;1.17;;
7173;SDS011;3628;48.654;8.932;2022-08-01T06:54:28;1.45;;;1.33;;
7173;SDS011;3628;48.654;8.932;2022-08-01T06:56:54;1.08;;;1.08;;
7173;SDS011;3628;48.654;8.932;2022-08-01T06:59:19;2.15;;;1.30;;
7173;SDS011;3628;48.654;8.932;2022-08-01T07:01:45;1.52;;;0.95;;
7173;SDS011;3628;48.654;8.932;2022-08-01T07:04:10;0.98;;;0.98;;
7173;SDS011;3628;48.654;8.932;2022-08-01T07:06:36;2.05;;;0.93;;
7173;SDS011;3628;48.654;8.932;2022-08-01T07:09:02;1.05;;;0.98;;
7173;SDS011;3628;48.654;8.932;2022-08-01T07:11:28;1.23;;;0.88;;
7173;SDS011;3628;48.654;8.932;2022-08-01T07:13:54;2.78;;;1.10;;
7173;SDS011;3628;48.654;8.932;2022-08-01T07:16:19;0.90;;;0.85;;
7173;SDS011;3628;48.654;8.932;2022-08-01T07:18:45;3.25;;;1.10;;
7173;SDS011;3628;48.654;8.932;2022-08-01T07:21:11;6.00;;;0.82;;
7173;SDS011;3628;48.654;8.932;2022-08-01T07:23:36;1.10;;;0.90;;
7173;SDS011;3628;48.654;8.932;2022-08-01T07:26:02;1.00;;;1.00;;
7173;SDS011;3628;48.654;8.932;2022-08-01T07:28:29;2.15;;;1.00;;
7173;SDS011;3628;48.654;8.932;2022-08-01T07:30:55;0.98;;;0.98;;
7173;SDS011;3628;48.654;8.932;2022-08-01T07:33:21;2.60;;;1.05;;
7173;SDS011;3628;48.654;8.932;2022-08-01T07:35:47;2.45;;;1.17;;
7173;SDS011;3628;48.654;8.932;2022-08-01T07:38:13;2.40;;;1.10;;
7173;SDS011;3628;48.654;8.932;2022-08-01T07:40:40;1.27;;;0.93;;
7173;SDS011;3628;48.654;8.932;2022-08-01T07:43:05;0.93;;;0.90;;
7173;SDS011;3628;48.654;8.932;2022-08-01T07:45:31;1.25;;;1.00;;
7173;SDS011;3628;48.654;8.932;2022-08-01T07:48:01;2.95;;;1.17;;
7173;SDS011;3628;48.654;8.932;2022-08-01T07:50:28;2.00;;;1.15;;
7173;SDS011;3628;48.654;8.932;2022-08-01T07:52:53;0.90;;;0.90;;
7173;SDS011;3628;48.654;8.932;2022-08-01T07:55:19;1.30;;;1.20;;
7173;SDS011;3628;48.654;8.932;2022-08-01T07:57:44;1.30;;;1.08;;
7173;SDS011;3628;48.654;8.932;2022-08-01T08:00:10;1.25;;;1.15;;
7173;SDS011;3628;48.654;8.932;2022-08-01T08:02:36;1.63;;;1.27;;
7173;SDS011;3628;48.654;8.932;2022-08-01T08:05:02;1.30;;;1.00;;
7173;SDS011;3628;48.654;8.932;2022-08-01T08:07:28;2.65;;;1.10;;
7173;SDS011;3628;48.654;8.932;2022-08-01T08:09:54;1.38;;;0.90;;
7173;SDS011;3628;48.654;8.932;2022-08-01T08:12:20;1.75;;;1.23;;
7173;SDS011;3628;48.654;8.932;2022-08-01T08:14:45;2.90;;;1.33;;
7173;SDS011;3628;48.654;8.932;2022-08-01T08:17:11;1.00;;;1.00;;
7173;SDS011;3628;48.654;8.932;2022-08-01T08:19:36;1.38;;;1.27;;
7173;SDS011;3628;48.654;8.932;2022-08-01T08:22:04;1.35;;;1.25;;
7173;SDS011;3628;48.654;8.932;2022-08-01T08:24:33;1.50;;;1.30;;
7173;SDS011;3628;48.654;8.932;2022-08-01T08:27:00;1.40;;;1.30;;
7173;SDS011;3628;48.654;8.932;2022-08-01T08:29:27;1.40;;;1.30;;
7173;SDS011;3628;48.654;8.932;2022-08-01T08:31:54;1.80;;;1.20;;
7173;SDS011;3628;48.654;8.932;2022-08-01T08:34:20;1.40;;;1.30;;
7173;SDS011;3628;48.654;8.932;2022-08-01T08:36:46;1.30;;;1.13;;
7173;SDS011;3628;48.654;8.932;2022-08-01T08:39:13;1.30;;;1.20;;
7173;SDS011;3628;48.654;8.932;2022-08-01T08:41:38;1.05;;;0.98;;
7173;SDS011;3628;48.654;8.932;2022-08-01T08:44:05;1.30;;;1.20;;
7173;SDS011;3628;48.654;8.932;2022-08-01T08:46:31;1.30;;;1.20;;
7173;SDS011;3628;48.654;8.932;2022-08-01T08:48:58;1.73;;;1.55;;
7173;SDS011;3628;48.654;8.932;2022-08-01T08:51:25;5.68;;;1.42;;
7173;SDS011;3628;48.654;8.932;2022-08-01T08:53:53;2.00;;;1.33;;
7173;SDS011;3628;48.654;8.932;2022-08-01T08:56:20;1.80;;;1.30;;
7173;SDS011;3628;48.654;8.932;2022-08-01T08:58:48;7.13;;;1.75;;
7173;SDS011;3628;48.654;8.932;2022-08-01T09:01:15;1.92;;;1.30;;
7173;SDS011;3628;48.654;8.932;2022-08-01T09:03:42;1.13;;;1.02;;
7173;SDS011;3628;48.654;8.932;2022-08-01T09:06:08;1.58;;;1.48;;
7173;SDS011;3628;48.654;8.932;2022-08-01T09:08:35;1.58;;;1.48;;
7173;SDS011;3628;48.654;8.932;2022-08-01T09:11:01;2.20;;;1.70;;
7173;SDS011;3628;48.654;8.932;2022-08-01T09:13:26;1.70;;;1.60;;
7173;SDS011;3628;48.654;8.932;2022-08-01T09:15:52;3.97;;;1.30;;
7173;SDS011;3628;48.654;8.932;2022-08-01T09:20:52;1.85;;;1.27;;
7173;SDS011;3628;48.654;8.932;2022-08-01T09:23:34;7.40;;;1.90;;
7173;SDS011;3628;48.654;8.932;2022-08-01T09:26:04;2.10;;;1.40;;
7173;SDS011;3628;48.654;8.932;2022-08-01T09:28:30;1.33;;;1.23;;
7173;SDS011;3628;48.654;8.932;2022-08-01T09:30:57;1.25;;;1.17;;
7173;SDS011;3628;48.654;8.932;2022-08-01T09:33:23;1.17;;;1.13;;
7173;SDS011;3628;48.654;8.932;2022-08-01T09:35:55;1.60;;;1.50;;
7173;SDS011;3628;48.654;8.932;2022-08-01T09:38:24;1.30;;;1.20;;
7173;SDS011;3628;48.654;8.932;2022-08-01T09:40:57;1.20;;;1.15;;
7173;SDS011;3628;48.654;8.932;2022-08-01T09:43:26;1.75;;;1.30;;
7173;SDS011;3628;48.654;8.932;2022-08-01T09:45:54;1.40;;;1.30;;
7173;SDS011;3628;48.654;8.932;2022-08-01T09:48:21;1.40;;;1.30;;
7173;SDS011;3628;48.654;8.932;2022-08-01T09:50:48;1.50;;;1.40;;
7173;SDS011;3628;48.654;8.932;2022-08-01T09:53:17;1.13;;;1.10;;
7173;SDS011;3628;48.654;8.932;2022-08-01T09:55:43;1.40;;;1.10;;
7173;SDS011;3628;48.654;8.932;2022-08-01T09:58:09;1.60;;;1.33;;
7173;SDS011;3628;48.654;8.932;2022-08-01T10:00:37;2.15;;;1.40;;
7173;SDS011;3628;48.654;8.932;2022-08-01T10:05:44;1.45;;;1.33;;
7173;SDS011;3628;48.654;8.932;2022-08-01T10:08:10;2.80;;;1.40;;
7173;SDS011;3628;48.654;8.932;2022-08-01T10:10:37;3.97;;;1.70;;
7173;SDS011;3628;48.654;8.932;2022-08-01T10:13:03;5.68;;;1.83;;
7173;SDS011;3628;48.654;8.932;2022-08-01T10:15:29;2.53;;;1.60;;
7173;SDS011;3628;48.654;8.932;2022-08-01T10:17:57;1.40;;;1.30;;
7173;SDS011;3628;48.654;8.932;2022-08-01T10:20:27;1.23;;;1.20;;
7173;SDS011;3628;48.654;8.932;2022-08-01T10:22:55;1.90;;;1.55;;
7173;SDS011;3628;48.654;8.932;2022-08-01T10:25:27;1.55;;;1.25;;
7173;SDS011;3628;48.654;8.932;2022-08-01T10:27:56;1.52;;;1.42;;
7173;SDS011;3628;48.654;8.932;2022-08-01T10:30:24;1.52;;;1.42;;
7173;SDS011;3628;48.654;8.932;2022-08-01T10:32:50;1.65;;;1.40;;
7173;SDS011;3628;48.654;8.932;2022-08-01T10:35:19;2.92;;;1.52;;
7173;SDS011;3628;48.654;8.932;2022-08-01T10:37:46;2.20;;;1.67;;
7173;SDS011;3628;48.654;8.932;2022-08-01T10:40:15;2.08;;;1.60;;
7173;SDS011;3628;48.654;8.932;2022-08-01T10:42:41;2.28;;;1.38;;
7173;SDS011;3628;48.654;8.932;2022-08-01T10:45:08;1.48;;;1.38;;
7173;SDS011;3628;48.654;8.932;2022-08-01T10:47:40;1.95;;;1.50;;
7173;SDS011;3628;48.654;8.932;2022-08-01T10:50:15;1.42;;;1.33;;
7173;SDS011;3628;48.654;8.932;2022-08-01T10:53:20;1.45;;;1.35;;
7173;SDS011;3628;48.654;8.932;2022-08-01T10:55:58;5.50;;;1.50;;
7173;SDS011;3628;48.654;8.932;2022-08-01T10:58:37;2.50;;;1.50;;
7173;SDS011;3628;48.654;8.932;2022-08-01T11:01:25;6.30;;;1.50;;
7173;SDS011;3628;48.654;8.932;2022-08-01T11:04:07;2.45;;;1.40;;
7173;SDS011;3628;48.654;8.932;2022-08-01T11:07:23;3.58;;;1.65;;
7173;SDS011;3628;48.654;8.932;2022-08-01T11:09:31;1.33;;;1.23;;
7173;SDS011;3628;48.654;8.932;2022-08-01T11:12:13;1.45;;;1.35;;
7173;SDS011;3628;48.654;8.932;2022-08-01T11:17:57;1.52;;;1.42;;
7173;SDS011;3628;48.654;8.932;2022-08-01T11:20:34;2.08;;;1.50;;
7173;SDS011;3628;48.654;8.932;2022-08-01T11:30:42;1.45;;;1.20;;
7173;SDS011;3628;48.654;8.932;2022-08-01T11:33:09;1.35;;;1.25;;
7173;SDS011;3628;48.654;8.932;2022-08-01T11:35:36;1.33;;;1.23;;
7173;SDS011;3628;48.654;8.932;2022-08-01T11:41:09;1.70;;;1.20;;
7173;SDS011;3628;48.654;8.932;2022-08-01T11:44:03;1.55;;;1.45;;
7173;SDS011;3628;48.654;8.932;2022-08-01T11:52:09;1.60;;;1.40;;
7173;SDS011;3628;48.654;8.932;2022-08-01T11:54:57;2.15;;;1.50;;
7173;SDS011;3628;48.654;8.932;2022-08-01T11:57:24;1.77;;;1.67;;
7173;SDS011;3628;48.654;8.932;2022-08-01T12:00:00;1.67;;;1.23;;
7173;SDS011;3628;48.654;8.932;2022-08-01T12:02:34;1.50;;;1.40;;
7173;SDS011;3628;48.654;8.932;2022-08-01T12:05:05;3.00;;;1.30;;
7173;SDS011;3628;48.654;8.932;2022-08-01T12:07:36;1.63;;;1.30;;
7173;SDS011;3628;48.654;8.932;2022-08-01T12:10:12;1.15;;;1.05;;
7173;SDS011;3628;48.654;8.932;2022-08-01T12:12:47;1.48;;;1.38;;
7173;SDS011;3628;48.654;8.932;2022-08-01T12:15:17;1.55;;;1.20;;
7173;SDS011;3628;48.654;8.932;2022-08-01T12:20:18;1.50;;;1.33;;
7173;SDS011;3628;48.654;8.932;2022-08-01T12:22:45;2.03;;;1.20;;
7173;SDS011;3628;48.654;8.932;2022-08-01T12:25:12;1.23;;;1.17;;
7173;SDS011;3628;48.654;8.932;2022-08-01T12:27:42;1.45;;;1.27;;
7173;SDS011;3628;48.654;8.932;2022-08-01T12:30:11;1.40;;;1.30;;
7173;SDS011;3628;48.654;8.932;2022-08-01T12:32:40;1.50;;;1.13;;
7173;SDS011;3628;48.654;8.932;2022-08-01T12:35:10;1.13;;;1.10;;
7173;SDS011;3628;48.654;8.932;2022-08-01T12:37:39;1.38;;;1.02;;
7173;SDS011;3628;48.654;8.932;2022-08-01T12:40:11;1.85;;;1.10;;
7173;SDS011;3628;48.654;8.932;2022-08-01T12:42:44;1.10;;;1.00;;
7173;SDS011;3628;48.654;8.932;2022-08-01T12:45:13;1.77;;;1.20;;
7173;SDS011;3628;48.654;8.932;2022-08-01T12:47:40;1.13;;;1.02;;
7173;SDS011;3628;48.654;8.932;2022-08-01T12:50:07;1.20;;;1.13;;
7173;SDS011;3628;48.654;8.932;2022-08-01T12:52:37;1.10;;;1.02;;
7173;SDS011;3628;48.654;8.932;2022-08-01T12:55:04;2.00;;;1.20;;
7173;SDS011;3628;48.654;8.932;2022-08-01T12:57:43;0.90;;;0.90;;
7173;SDS011;3628;48.654;8.932;2022-08-01T13:00:29;1.33;;;0.90;;
7173;SDS011;3628;48.654;8.932;2022-08-01T13:03:05;1.00;;;0.90;;
7173;SDS011;3628;48.654;8.932;2022-08-01T13:05:45;1.88;;;1.13;;
7173;SDS011;3628;48.654;8.932;2022-08-01T13:08:23;1.23;;;1.10;;
7173;SDS011;3628;48.654;8.932;2022-08-01T13:16:08;1.10;;;1.00;;
7173;SDS011;3628;48.654;8.932;2022-08-01T13:18:35;1.40;;;1.30;;
7173;SDS011;3628;48.654;8.932;2022-08-01T13:21:14;1.40;;;1.30;;
7173;SDS011;3628;48.654;8.932;2022-08-01T13:29:09;1.02;;;1.02;;
7173;SDS011;3628;48.654;8.932;2022-08-01T13:31:36;7.00;;;1.38;;
7173;SDS011;3628;48.654;8.932;2022-08-01T13:34:03;1.58;;;1.15;;
7173;SDS011;3628;48.654;8.932;2022-08-01T13:36:29;1.10;;;1.00;;
7173;SDS011;3628;48.654;8.932;2022-08-01T13:38:56;2.83;;;1.40;;
7173;SDS011;3628;48.654;8.932;2022-08-01T13:41:41;4.22;;;1.40;;
7173;SDS011;3628;48.654;8.932;2022-08-01T13:44:07;2.75;;;1.42;;
7173;SDS011;3628;48.654;8.932;2022-08-01T13:46:34;2.47;;;1.33;;
7173;SDS011;3628;48.654;8.932;2022-08-01T13:49:00;1.73;;;1.63;;
7173;SDS011;3628;48.654;8.932;2022-08-01T13:51:27;3.08;;;1.50;;
7173;SDS011;3628;48.654;8.932;2022-08-01T13:53:52;6.28;;;1.98;;
7173;SDS011;3628;48.654;8.932;2022-08-01T13:56:18;7.20;;;2.08;;
7173;SDS011;3628;48.654;8.932;2022-08-01T13:58:45;12.00;;;2.50;;
7173;SDS011;3628;48.654;8.932;2022-08-01T14:01:11;6.43;;;2.13;;
7173;SDS011;3628;48.654;8.932;2022-08-01T14:03:36;7.45;;;2.00;;
7173;SDS011;3628;48.654;8.932;2022-08-01T14:06:02;7.97;;;2.05;;
7173;SDS011;3628;48.654;8.932;2022-08-01T14:08:28;10.05;;;1.85;;
7173;SDS011;3628;48.654;8.932;2022-08-01T14:10:54;2.65;;;1.42;;
7173;SDS011;3628;48.654;8.932;2022-08-01T14:13:22;2.58;;;1.65;;
7173;SDS011;3628;48.654;8.932;2022-08-01T14:15:48;2.78;;;1.30;;
7173;SDS011;3628;48.654;8.932;2022-08-01T14:18:15;3.10;;;1.40;;
7173;SDS011;3628;48.654;8.932;2022-08-01T14:20:40;1.48;;;1.38;;
7173;SDS011;3628;48.654;8.932;2022-08-01T14:23:06;1.95;;;1.63;;
7173;SDS011;3628;48.654;8.932;2022-08-01T14:25:32;2.35;;;1.60;;
7173;SDS011;3628;48.654;8.932;2022-08-01T14:27:58;2.03;;;1.23;;
7173;SDS011;3628;48.654;8.932;2022-08-01T14:30:23;1.55;;;1.45;;
7173;SDS011;3628;48.654;8.932;2022-08-01T14:32:49;2.10;;;1.38;;
7173;SDS011;3628;48.654;8.932;2022-08-01T14:35:15;2.42;;;1.35;;
7173;SDS011;3628;48.654;8.932;2022-08-01T14:37:40;1.60;;;1.35;;
7173;SDS011;3628;48.654;8.932;2022-08-01T14:40:06;2.33;;;1.45;;
7173;SDS011;3628;48.654;8.932;2022-08-01T14:42:34;2.13;;;1.17;;
7173;SDS011;3628;48.654;8.932;2022-08-01T14:45:00;1.10;;;1.10;;
7173;SDS011;3628;48.654;8.932;2022-08-01T14:47:26;1.10;;;1.10;;
7173;SDS011;3628;48.654;8.932;2022-08-01T14:49:52;1.40;;;1.30;;
7173;SDS011;3628;48.654;8.932;2022-08-01T14:52:18;1.23;;;1.15;;
7173;SDS011;3628;48.654;8.932;2022-08-01T14:54:44;2.10;;;1.20;;
7173;SDS011;3628;48.654;8.932;2022-08-01T14:57:10;4.85;;;1.48;;
7173;SDS011;3628;48.654;8.932;2022-08-01T14:59:35;2.22;;;1.10;;
7173;SDS011;3628;48.654;8.932;2022-08-01T15:02:01;2.35;;;1.30;;
7173;SDS011;3628;48.654;8.932;2022-08-01T15:04:27;2.38;;;1.30;;
7173;SDS011;3628;48.654;8.932;2022-08-01T15:06:53;1.33;;;1.05;;
7173;SDS011;3628;48.654;8.932;2022-08-01T15:09:18;2.85;;;1.38;;
7173;SDS011;3628;48.654;8.932;2022-08-01T15:11:44;2.70;;;1.55;;
7173;SDS011;3628;48.654;8.932;2022-08-01T15:14:11;3.65;;;1.30;;
7173;SDS011;3628;48.654;8.932;2022-08-01T15:16:56;3.30;;;1.25;;
7173;SDS011;3628;48.654;8.932;2022-08-01T15:19:21;1.83;;;1.40;;
7173;SDS011;3628;48.654;8.932;2022-08-01T15:21:47;1.92;;;1.00;;
7173;SDS011;3628;48.654;8.932;2022-08-01T15:24:12;1.10;;;1.00;;
7173;SDS011;3628;48.654;8.932;2022-08-01T15:26:38;3.20;;;1.30;;
7173;SDS011;3628;48.654;8.932;2022-08-01T15:29:04;1.75;;;1.50;;
7173;SDS011;3628;48.654;8.932;2022-08-01T15:31:29;1.27;;;1.17;;
7173;SDS011;3628;48.654;8.932;2022-08-01T15:33:55;1.33;;;1.20;;
7173;SDS011;3628;48.654;8.932;2022-08-01T15:36:21;2.05;;;1.30;;
7173;SDS011;3628;48.654;8.932;2022-08-01T15:38:46;1.30;;;1.20;;
7173;SDS011;3628;48.654;8.932;2022-08-01T15:41:12;4.43;;;1.20;;
7173;SDS011;3628;48.654;8.932;2022-08-01T15:43:37;1.33;;;1.23;;
7173;SDS011;3628;48.654;8.932;2022-08-01T15:46:03;1.98;;;1.23;;
7173;SDS011;3628;48.654;8.932;2022-08-01T15:48:29;2.08;;;1.20;;
7173;SDS011;3628;48.654;8.932;2022-08-01T15:50:55;2.35;;;1.20;;
7173;SDS011;3628;48.654;8.932;2022-08-01T15:53:20;1.90;;;1.45;;
7173;SDS011;3628;48.654;8.932;2022-08-01T15:55:46;1.45;;;1.35;;
7173;SDS011;3628;48.654;8.932;2022-08-01T15:58:12;2.13;;;1.40;;
7173;SDS011;3628;48.654;8.932;2022-08-01T16:00:37;1.58;;;1.48;;
7173;SDS011;3628;48.654;8.932;2022-08-01T16:03:03;1.23;;;1.00;;
7173;SDS011;3628;48.654;8.932;2022-08-01T16:05:29;1.55;;;1.40;;